Time;durP1;ratioP1;P1;durP2;ratioP2;P2;SDS_P1;SDS_P2;PMS_P1;PMS_P2;Temp;Humidity;BMP_temperature;BMP_pressure;BME280_temperature;BME280_humidity;BME280_pressure;Samples;Min_cycle;Max_cycle;Signal;HPM_P1;HPM_P2
2020/12/26 00:01:21;;;;;;;5.20;2.50;;;-0.30;99.90;;;;;;5230717;28;20633;-67
2020/12/26 00:03:52;;;;;;;3.97;2.07;;;-0.30;99.90;;;;;;5230046;28;20202;-66
2020/12/26 00:06:26;;;;;;;4.63;1.77;;;-0.30;99.90;;;;;;5230087;28;20185;-67
2020/12/26 00:08:57;;;;;;;6.73;2.20;;;-0.30;99.90;;;;;;5230335;28;20297;-66
2020/12/26 00:11:29;;;;;;;4.87;2.03;;;-0.40;99.90;;;;;;5230707;28;20557;-65
2020/12/26 00:14:00;;;;;;;6.53;2.63;;;-0.40;99.90;;;;;;5212623;28;20222;-66
2020/12/26 00:16:31;;;;;;;4.93;2.50;;;-0.40;99.90;;;;;;5230878;28;20197;-68
2020/12/26 00:19:09;;;;;;;4.23;2.13;;;-0.40;99.90;;;;;;5229988;28;20196;-66
2020/12/26 00:21:41;;;;;;;5.40;2.47;;;-0.40;99.90;;;;;;5229616;28;20221;-66
2020/12/26 00:24:13;;;;;;;6.73;2.70;;;-0.50;99.90;;;;;;5229561;28;20198;-66
2020/12/26 00:26:44;;;;;;;4.33;2.23;;;-0.50;99.90;;;;;;5229528;28;20241;-66
2020/12/26 00:29:17;;;;;;;5.77;2.20;;;-0.50;99.90;;;;;;5230104;28;20220;-66
2020/12/26 00:31:48;;;;;;;4.20;2.13;;;-0.50;99.90;;;;;;5229798;28;20574;-64
2020/12/26 00:34:21;;;;;;;3.63;1.83;;;-0.50;99.90;;;;;;5211624;28;20190;-67
2020/12/26 00:36:52;;;;;;;6.27;2.70;;;-0.40;99.90;;;;;;5232068;28;20211;-68
2020/12/26 00:39:23;;;;;;;5.17;2.60;;;-0.40;99.90;;;;;;5231519;28;20190;-65
2020/12/26 00:41:55;;;;;;;4.90;2.10;;;-0.40;99.90;;;;;;5229605;28;20205;-66
2020/12/26 00:44:26;;;;;;;5.63;2.47;;;-0.40;99.90;;;;;;5229131;28;20201;-68
2020/12/26 00:46:57;;;;;;;5.87;2.23;;;-0.30;99.90;;;;;;5211795;28;20212;-66
2020/12/26 00:49:41;;;;;;;8.57;2.80;;;-0.30;99.90;;;;;;5229677;28;20252;-67
2020/12/26 00:52:13;;;;;;;4.77;2.20;;;-0.30;99.90;;;;;;5229660;28;20203;-66
2020/12/26 00:54:44;;;;;;;4.80;2.50;;;-0.20;99.90;;;;;;5229406;28;20190;-67
2020/12/26 00:57:15;;;;;;;6.37;2.40;;;-0.20;99.90;;;;;;5229640;28;20664;-66
2020/12/26 00:59:47;;;;;;;6.43;2.00;;;-0.30;99.90;;;;;;5229233;28;20212;-68
2020/12/26 01:02:18;;;;;;;6.03;2.47;;;-0.20;99.90;;;;;;5229237;28;20556;-66
2020/12/26 01:04:49;;;;;;;3.90;2.23;;;-0.30;99.90;;;;;;5228543;28;20564;-66
2020/12/26 01:11:16;;;;;;;3.97;1.77;;;-0.30;99.90;;;;;;5228936;28;20266;-67
2020/12/26 01:13:48;;;;;;;5.03;2.37;;;-0.40;99.90;;;;;;5228790;28;20189;-67
2020/12/26 01:16:20;;;;;;;6.13;2.20;;;-0.40;99.90;;;;;;5228732;28;20197;-67
2020/12/26 01:18:51;;;;;;;3.90;1.90;;;-0.40;99.90;;;;;;5229499;28;20196;-64
2020/12/26 01:21:23;;;;;;;4.13;1.90;;;-0.50;99.90;;;;;;5229439;28;20202;-66
2020/12/26 01:27:50;;;;;;;2.97;2.00;;;-0.50;99.90;;;;;;5223235;28;20275;-68
2020/12/26 01:30:21;;;;;;;5.53;2.20;;;-0.50;99.90;;;;;;5228273;28;20233;-69
2020/12/26 01:32:54;;;;;;;4.73;2.13;;;-0.50;99.90;;;;;;5228628;28;20193;-65
2020/12/26 01:35:25;;;;;;;4.63;2.03;;;-0.50;99.90;;;;;;5228231;28;20276;-66
2020/12/26 01:41:42;;;;;;;3.10;1.80;;;-0.50;99.90;;;;;;5228439;28;20272;-68
2020/12/26 01:44:13;;;;;;;3.53;1.83;;;-0.50;99.90;;;;;;5229533;28;20277;-66
2020/12/26 01:46:47;;;;;;;4.37;2.10;;;-0.50;99.90;;;;;;5229980;28;20204;-71
2020/12/26 01:49:22;;;;;;;4.40;2.00;;;-0.50;99.90;;;;;;5229532;28;20203;-68
2020/12/26 01:51:54;;;;;;;5.20;2.33;;;-0.50;99.90;;;;;;5229905;28;20205;-69
2020/12/26 01:58:15;;;;;;;5.77;2.03;;;-0.50;99.90;;;;;;5229835;28;20197;-69
2020/12/26 02:00:46;;;;;;;5.20;2.40;;;-0.50;99.90;;;;;;5229981;28;20196;-65
2020/12/26 02:03:18;;;;;;;4.57;2.17;;;-0.40;99.90;;;;;;5229544;28;20197;-68
2020/12/26 02:05:53;;;;;;;4.80;2.30;;;-0.40;99.90;;;;;;5229908;28;20196;-67
2020/12/26 02:08:25;;;;;;;6.40;2.60;;;-0.40;99.90;;;;;;5228385;28;20202;-66
2020/12/26 02:10:56;;;;;;;4.30;2.00;;;-0.40;99.90;;;;;;5227910;28;20218;-67
2020/12/26 02:13:27;;;;;;;5.90;2.20;;;-0.40;99.90;;;;;;5228065;28;20194;-67
2020/12/26 02:16:06;;;;;;;3.23;2.10;;;-0.50;99.90;;;;;;5227552;28;20530;-66
2020/12/26 02:18:38;;;;;;;6.00;2.77;;;-0.50;99.90;;;;;;5227374;28;20276;-65
2020/12/26 02:21:09;;;;;;;5.00;2.20;;;-0.60;99.90;;;;;;5228374;28;20197;-67
2020/12/26 02:23:45;;;;;;;3.33;2.30;;;-0.60;99.90;;;;;;5227570;28;20190;-68
2020/12/26 02:26:28;;;;;;;8.50;1.97;;;-0.60;99.90;;;;;;5227494;28;20671;-68
2020/12/26 02:29:00;;;;;;;4.70;2.30;;;-0.70;99.90;;;;;;5227481;28;20193;-65
2020/12/26 02:31:32;;;;;;;6.50;2.70;;;-0.70;99.90;;;;;;5227436;28;20225;-66
2020/12/26 02:34:04;;;;;;;5.93;2.30;;;-0.60;99.90;;;;;;5227825;28;20204;-67
2020/12/26 02:36:37;;;;;;;5.33;2.10;;;-0.60;99.90;;;;;;5227795;28;20623;-68
2020/12/26 02:39:08;;;;;;;2.67;1.87;;;-0.50;99.90;;;;;;5227761;28;20196;-66
2020/12/26 02:41:41;;;;;;;4.30;1.70;;;-0.40;99.90;;;;;;5227799;28;20556;-65
2020/12/26 02:44:13;;;;;;;2.37;1.53;;;-0.40;99.90;;;;;;5228253;28;20196;-66
2020/12/26 02:46:48;;;;;;;2.97;1.50;;;-0.40;99.90;;;;;;5227541;28;20190;-67
2020/12/26 02:49:20;;;;;;;2.97;1.27;;;-0.40;99.90;;;;;;5227615;28;20189;-66
2020/12/26 02:51:51;;;;;;;2.47;1.23;;;-0.30;99.90;;;;;;5227248;28;20217;-67
2020/12/26 02:54:22;;;;;;;2.70;1.17;;;-0.30;99.90;;;;;;5227477;28;20196;-67
2020/12/26 02:56:54;;;;;;;3.67;1.10;;;-0.20;99.90;;;;;;5227561;28;20206;-66
2020/12/26 02:59:25;;;;;;;1.70;1.10;;;-0.20;99.90;;;;;;5227161;28;20197;-67
2020/12/26 03:01:56;;;;;;;3.00;1.40;;;-0.20;99.90;;;;;;5227126;28;20190;-66
2020/12/26 03:04:28;;;;;;;3.17;1.20;;;-0.10;99.90;;;;;;5227383;28;20204;-66
2020/12/26 03:06:59;;;;;;;1.90;1.20;;;-0.10;99.90;;;;;;5227154;28;20194;-66
2020/12/26 03:09:30;;;;;;;3.13;1.30;;;-0.10;99.90;;;;;;5227379;28;20198;-68
2020/12/26 03:12:02;;;;;;;2.00;1.17;;;-0.10;99.90;;;;;;5227452;28;20613;-67
2020/12/26 03:14:33;;;;;;;3.00;1.17;;;-0.10;99.90;;;;;;5227736;28;20190;-65
2020/12/26 03:17:05;;;;;;;1.87;1.20;;;-0.10;99.90;;;;;;5227070;28;20197;-66
2020/12/26 03:19:36;;;;;;;2.60;1.20;;;-0.10;99.90;;;;;;5227354;28;20190;-65
2020/12/26 03:22:08;;;;;;;2.73;1.33;;;0.00;99.90;;;;;;5228288;28;20213;-65
2020/12/26 03:24:39;;;;;;;4.30;1.50;;;0.10;99.90;;;;;;5227094;28;20636;-65
2020/12/26 03:27:10;;;;;;;3.03;1.67;;;0.10;99.90;;;;;;5226882;28;20233;-67
2020/12/26 03:29:42;;;;;;;2.47;1.43;;;0.10;99.90;;;;;;5230619;28;20204;-66
2020/12/26 03:32:14;;;;;;;3.27;1.40;;;0.10;99.90;;;;;;5213311;28;20196;-64
2020/12/26 03:34:45;;;;;;;1.57;1.17;;;0.10;99.90;;;;;;5230930;28;20190;-66
2020/12/26 03:37:17;;;;;;;2.17;0.90;;;0.10;99.90;;;;;;5230851;28;20227;-67
2020/12/26 03:39:48;;;;;;;2.23;1.13;;;0.10;99.90;;;;;;5230418;28;20194;-64
2020/12/26 03:42:20;;;;;;;3.97;1.40;;;0.10;99.90;;;;;;5230342;28;20198;-65
2020/12/26 03:44:51;;;;;;;2.43;1.30;;;0.00;99.90;;;;;;5230804;28;20189;-66
2020/12/26 03:47:22;;;;;;;1.83;1.20;;;0.00;99.90;;;;;;5230707;28;20198;-66
2020/12/26 03:49:54;;;;;;;2.83;1.10;;;0.00;99.90;;;;;;5230265;28;20648;-68
2020/12/26 03:52:25;;;;;;;2.07;1.30;;;-0.10;99.90;;;;;;5230599;28;20198;-65
2020/12/26 03:54:57;;;;;;;1.57;1.10;;;0.00;99.90;;;;;;5231372;28;20193;-69
2020/12/26 03:57:28;;;;;;;3.40;1.40;;;0.00;99.90;;;;;;5230951;28;20235;-65
2020/12/26 03:59:59;;;;;;;2.17;1.50;;;0.00;99.90;;;;;;5212829;28;20189;-65
2020/12/26 04:02:31;;;;;;;1.40;1.10;;;0.00;99.90;;;;;;5230585;28;20193;-67
2020/12/26 04:05:02;;;;;;;3.20;1.70;;;0.10;99.90;;;;;;5230127;28;20198;-67
2020/12/26 04:07:34;;;;;;;3.53;1.40;;;0.10;99.90;;;;;;5230051;28;20196;-67
2020/12/26 04:10:05;;;;;;;3.53;1.43;;;0.10;99.90;;;;;;5229760;28;20222;-67
2020/12/26 04:12:37;;;;;;;2.10;1.23;;;0.10;99.90;;;;;;5230352;28;20251;-67
2020/12/26 04:15:09;;;;;;;1.90;1.00;;;0.10;99.90;;;;;;5229830;28;20193;-68
2020/12/26 04:17:41;;;;;;;1.80;1.20;;;0.10;99.90;;;;;;5229754;28;20293;-66
2020/12/26 04:20:12;;;;;;;1.70;1.10;;;0.00;99.90;;;;;;5229705;28;20198;-65
2020/12/26 04:22:43;;;;;;;2.37;1.10;;;0.00;99.90;;;;;;5229612;28;20226;-65
2020/12/26 04:25:15;;;;;;;2.53;1.10;;;0.00;99.90;;;;;;5229619;28;20194;-66
2020/12/26 04:27:46;;;;;;;2.23;1.20;;;-0.10;99.90;;;;;;5229408;28;20245;-65
2020/12/26 04:30:18;;;;;;;3.23;1.40;;;-0.10;99.90;;;;;;5229711;28;20672;-66
2020/12/26 04:32:50;;;;;;;3.73;1.43;;;-0.10;99.90;;;;;;5230559;28;20551;-66
2020/12/26 04:35:22;;;;;;;2.30;1.40;;;-0.10;99.90;;;;;;5230563;28;20290;-70
2020/12/26 04:37:54;;;;;;;1.87;1.20;;;-0.10;99.90;;;;;;5230202;28;20289;-66
2020/12/26 04:40:25;;;;;;;1.87;1.20;;;-0.10;99.90;;;;;;5228759;28;20227;-66
2020/12/26 04:42:59;;;;;;;1.40;1.00;;;-0.10;99.90;;;;;;5229565;28;20207;-65
2020/12/26 04:45:30;;;;;;;3.00;1.00;;;0.00;99.90;;;;;;5229983;28;20209;-65
2020/12/26 04:48:08;;;;;;;1.73;1.10;;;0.00;99.90;;;;;;5229528;28;20205;-65
2020/12/26 04:50:46;;;;;;;1.23;1.00;;;0.00;99.90;;;;;;5229036;28;20216;-65
2020/12/26 04:57:03;;;;;;;4.23;1.23;;;0.00;99.90;;;;;;5229122;28;20208;-68
2020/12/26 04:59:34;;;;;;;1.60;1.23;;;0.00;99.90;;;;;;5229152;28;20219;-66
2020/12/26 05:02:08;;;;;;;1.57;1.17;;;0.00;99.90;;;;;;5229735;28;20558;-66
2020/12/26 05:04:43;;;;;;;2.53;0.90;;;0.00;99.90;;;;;;5229022;28;20193;-65
2020/12/26 05:07:14;;;;;;;1.27;1.10;;;0.00;99.90;;;;;;5229327;28;20495;-67
2020/12/26 05:13:31;;;;;;;1.63;1.07;;;0.00;99.90;;;;;;5229698;28;20189;-68
2020/12/26 05:16:03;;;;;;;2.70;1.40;;;-0.10;99.90;;;;;;5230433;28;20197;-66
2020/12/26 05:18:38;;;;;;;1.43;1.10;;;0.00;99.90;;;;;;5230348;28;20610;-67
2020/12/26 05:21:09;;;;;;;2.20;1.40;;;-0.10;99.90;;;;;;5231687;28;20201;-72
2020/12/26 05:23:41;;;;;;;2.47;1.30;;;-0.10;99.90;;;;;;5229319;28;20216;-70
2020/12/26 05:26:12;;;;;;;2.20;1.50;;;0.00;99.90;;;;;;5229230;28;20249;-67
2020/12/26 05:28:48;;;;;;;6.03;2.00;;;0.00;99.90;;;;;;5229312;28;20193;-70
2020/12/26 05:31:19;;;;;;;2.97;1.87;;;0.10;99.90;;;;;;5228693;28;20579;-67
2020/12/26 05:33:51;;;;;;;2.80;1.80;;;0.10;99.90;;;;;;5228920;28;20644;-67
2020/12/26 05:36:22;;;;;;;2.67;1.57;;;0.20;99.90;;;;;;5229152;28;20208;-67
2020/12/26 05:38:54;;;;;;;2.77;1.63;;;0.30;99.90;;;;;;5229250;28;20201;-65
2020/12/26 05:41:25;;;;;;;2.67;1.47;;;0.30;99.90;;;;;;5228869;28;20213;-69
2020/12/26 05:43:57;;;;;;;2.50;1.30;;;0.30;99.90;;;;;;5228673;28;20558;-70
2020/12/26 05:46:28;;;;;;;3.83;1.50;;;0.20;99.90;;;;;;5228323;28;20193;-68
2020/12/26 05:49:20;;;;;;;2.60;1.50;;;0.20;99.90;;;;;;5229254;28;20197;-66
2020/12/26 05:51:57;;;;;;;5.23;1.57;;;0.10;99.90;;;;;;5228759;28;20224;-70
2020/12/26 05:54:30;;;;;;;2.33;1.63;;;0.10;99.90;;;;;;5231328;28;20200;-71
2020/12/26 05:57:12;;;;;;;2.47;1.43;;;0.10;99.90;;;;;;5230058;28;20557;-72
2020/12/26 05:59:51;;;;;;;3.27;1.57;;;0.00;99.90;;;;;;5229769;28;20204;-76
2020/12/26 06:02:30;;;;;;;2.23;1.40;;;0.10;99.90;;;;;;5229900;28;20214;-66
2020/12/26 06:05:05;;;;;;;3.43;1.77;;;0.10;99.90;;;;;;5228562;28;20564;-67
2020/12/26 06:07:37;;;;;;;3.13;1.50;;;0.00;99.90;;;;;;5227963;28;20193;-65
2020/12/26 06:10:09;;;;;;;2.20;1.40;;;0.00;99.90;;;;;;5229179;28;20567;-66
2020/12/26 06:12:42;;;;;;;3.40;1.40;;;0.00;99.90;;;;;;5228010;28;20211;-70
2020/12/26 06:15:17;;;;;;;2.67;1.40;;;0.00;99.90;;;;;;5228097;28;20212;-67
2020/12/26 06:17:51;;;;;;;2.33;1.50;;;0.00;99.90;;;;;;5228301;28;20552;-65
2020/12/26 06:20:23;;;;;;;3.80;1.50;;;0.00;99.90;;;;;;5227672;28;20193;-64
2020/12/26 06:23:07;;;;;;;3.63;1.80;;;0.00;99.90;;;;;;5227967;28;20548;-67
2020/12/26 06:25:43;;;;;;;4.30;1.83;;;0.10;99.90;;;;;;5227838;28;20641;-67
2020/12/26 06:28:26;;;;;;;4.47;1.70;;;0.10;99.90;;;;;;5227453;28;20236;-66
2020/12/26 06:31:06;;;;;;;3.57;2.00;;;0.20;99.90;;;;;;5227674;28;20224;-66
2020/12/26 06:33:46;;;;;;;3.93;2.00;;;0.10;99.90;;;;;;5227883;28;20188;-65
2020/12/26 06:36:19;;;;;;;2.90;2.10;;;0.10;99.90;;;;;;5227676;28;20549;-66
2020/12/26 06:42:40;;;;;;;2.87;2.03;;;0.10;99.90;;;;;;5227360;28;20169;-66
2020/12/26 06:45:31;;;;;;;4.20;2.30;;;0.00;99.90;;;;;;5227586;28;20526;-66
2020/12/26 06:48:05;;;;;;;4.00;2.00;;;-0.10;99.90;;;;;;5227919;28;20196;-66
2020/12/26 06:50:36;;;;;;;3.53;2.47;;;-0.20;99.90;;;;;;5227405;28;20231;-66
2020/12/26 06:53:12;;;;;;;4.20;2.40;;;-0.20;99.90;;;;;;5227448;28;20202;-70
2020/12/26 06:59:40;;;;;;;4.20;2.40;;;-0.30;99.90;;;;;;5227242;28;20207;-65
2020/12/26 07:02:11;;;;;;;5.57;2.67;;;-0.30;99.90;;;;;;5227111;28;20194;-66
2020/12/26 07:04:43;;;;;;;5.23;2.50;;;-0.30;99.90;;;;;;5230795;28;20578;-66
2020/12/26 07:07:14;;;;;;;3.37;1.93;;;-0.30;99.90;;;;;;5230744;28;20208;-66
2020/12/26 07:09:47;;;;;;;3.50;1.83;;;-0.20;99.90;;;;;;5230819;28;20197;-66
2020/12/26 07:12:18;;;;;;;2.73;1.90;;;-0.10;99.90;;;;;;5230971;28;20300;-68
2020/12/26 07:14:51;;;;;;;3.57;1.83;;;0.00;99.90;;;;;;5213030;28;20190;-67
2020/12/26 07:17:25;;;;;;;3.17;1.60;;;0.00;99.90;;;;;;5230713;28;20202;-67
2020/12/26 07:19:58;;;;;;;3.73;2.10;;;0.00;99.90;;;;;;5213212;28;20547;-67
2020/12/26 07:22:31;;;;;;;5.30;2.10;;;0.00;99.90;;;;;;5231147;28;20203;-67
2020/12/26 07:25:08;;;;;;;3.90;2.07;;;0.00;99.90;;;;;;5230534;28;20194;-67
2020/12/26 07:27:42;;;;;;;3.63;2.00;;;0.00;99.90;;;;;;5231263;28;20235;-66
2020/12/26 07:30:15;;;;;;;4.23;2.13;;;-0.10;99.90;;;;;;5232087;28;20264;-67
2020/12/26 07:32:53;;;;;;;4.60;2.70;;;-0.10;99.90;;;;;;5230996;28;20189;-68
2020/12/26 07:35:33;;;;;;;6.80;2.43;;;-0.10;99.90;;;;;;5230920;28;20190;-66
2020/12/26 07:38:07;;;;;;;6.17;2.70;;;-0.10;99.90;;;;;;5229563;28;20201;-67
2020/12/26 07:40:44;;;;;;;7.20;2.87;;;-0.10;99.90;;;;;;5229819;28;20192;-67
2020/12/26 07:43:17;;;;;;;6.37;2.17;;;0.00;99.90;;;;;;5230350;28;20572;-65
2020/12/26 07:45:55;;;;;;;5.87;2.20;;;0.00;99.90;;;;;;5230264;28;20242;-64
2020/12/26 07:48:27;;;;;;;3.97;2.30;;;0.00;99.90;;;;;;5228036;28;20200;-68
2020/12/26 07:50:58;;;;;;;3.87;2.00;;;0.00;99.90;;;;;;5230174;28;20311;-66
2020/12/26 07:53:29;;;;;;;5.47;1.97;;;0.00;99.90;;;;;;5230059;28;20190;-68
2020/12/26 07:56:01;;;;;;;4.20;1.83;;;0.00;99.90;;;;;;5230023;28;20198;-65
2020/12/26 07:58:33;;;;;;;6.23;2.10;;;0.00;99.90;;;;;;5229803;28;20275;-65
2020/12/26 08:01:05;;;;;;;4.73;2.20;;;0.00;99.90;;;;;;5230025;28;20190;-66
2020/12/26 08:03:39;;;;;;;6.13;2.70;;;0.10;99.90;;;;;;5228979;28;20193;-66
2020/12/26 08:06:12;;;;;;;6.00;2.77;;;0.10;99.90;;;;;;5229966;28;20189;-65
2020/12/26 08:12:47;;;;;;;8.83;3.87;;;0.10;99.90;;;;;;5229828;28;20622;-65
2020/12/26 08:15:20;;;;;;;6.73;3.67;;;0.10;99.90;;;;;;5229672;28;20196;-65
2020/12/26 08:17:54;;;;;;;7.20;3.47;;;0.10;99.90;;;;;;5229457;28;20690;-66
2020/12/26 08:20:28;;;;;;;7.23;3.47;;;0.20;99.90;;;;;;5229591;28;20277;-67
2020/12/26 08:22:59;;;;;;;7.50;3.77;;;0.20;99.90;;;;;;5229452;28;20197;-65
2020/12/26 08:29:41;;;;;;;11.27;5.20;;;0.30;99.90;;;;;;5228243;28;20263;-68
2020/12/26 08:32:14;;;;;;;10.90;5.07;;;0.40;99.90;;;;;;5231264;28;20312;-66
2020/12/26 08:34:59;;;;;;;15.37;5.30;;;0.40;99.90;;;;;;5229578;28;20190;-67
2020/12/26 08:37:38;;;;;;;14.53;6.13;;;0.40;99.90;;;;;;5229746;28;20633;-65
2020/12/26 08:43:56;;;;;;;13.37;5.10;;;0.40;99.90;;;;;;5230122;28;20224;-65
2020/12/26 08:46:31;;;;;;;14.73;5.43;;;0.50;99.90;;;;;;5229227;28;20633;-65
2020/12/26 08:49:05;;;;;;;11.80;5.23;;;0.50;99.90;;;;;;5229220;28;20600;-65
2020/12/26 08:51:44;;;;;;;10.80;5.47;;;0.50;99.90;;;;;;5228727;28;20261;-64
2020/12/26 08:54:23;;;;;;;9.90;5.33;;;0.60;99.90;;;;;;5229007;28;20533;-65
2020/12/26 08:56:57;;;;;;;9.83;4.60;;;0.70;99.90;;;;;;5228684;28;20205;-64
2020/12/26 08:59:31;;;;;;;8.27;4.07;;;0.70;99.90;;;;;;5228630;28;20189;-67
2020/12/26 09:02:03;;;;;;;7.70;3.87;;;0.80;99.90;;;;;;5227874;28;20288;-66
2020/12/26 09:04:40;;;;;;;5.60;2.60;;;0.90;99.90;;;;;;5228469;28;20215;-67
2020/12/26 09:07:22;;;;;;;6.57;3.50;;;1.00;99.90;;;;;;5228306;28;20202;-67
2020/12/26 09:09:53;;;;;;;6.37;3.10;;;1.00;99.90;;;;;;5228781;28;20582;-64
2020/12/26 09:12:28;;;;;;;6.80;3.33;;;1.10;99.90;;;;;;5228874;28;20217;-67
2020/12/26 09:14:59;;;;;;;7.67;3.63;;;1.10;99.90;;;;;;5229172;28;20230;-69
2020/12/26 09:17:31;;;;;;;8.30;3.60;;;1.20;99.90;;;;;;5228557;28;20200;-67
2020/12/26 09:20:05;;;;;;;8.20;3.73;;;1.20;99.90;;;;;;5228368;28;20189;-65
2020/12/26 09:22:39;;;;;;;6.70;3.97;;;1.20;99.90;;;;;;5228582;28;20193;-66
2020/12/26 09:25:26;;;;;;;11.87;4.23;;;1.20;99.90;;;;;;5228186;28;20212;-68
2020/12/26 09:28:03;;;;;;;6.70;3.30;;;1.30;99.90;;;;;;5228282;28;20684;-66
2020/12/26 09:30:37;;;;;;;8.30;4.27;;;1.30;99.90;;;;;;5228140;28;20209;-67
2020/12/26 09:33:09;;;;;;;9.93;4.33;;;1.40;99.90;;;;;;5228103;28;20207;-67
2020/12/26 09:35:41;;;;;;;8.27;3.83;;;1.40;99.90;;;;;;5228233;28;20198;-68
2020/12/26 09:38:12;;;;;;;6.50;3.30;;;1.40;99.90;;;;;;5227975;28;20193;-68
2020/12/26 09:40:44;;;;;;;6.00;3.17;;;1.50;99.90;;;;;;5227889;28;20236;-66
2020/12/26 09:43:16;;;;;;;10.50;3.13;;;1.50;99.90;;;;;;5227778;28;20230;-66
2020/12/26 09:45:48;;;;;;;6.40;2.70;;;1.60;99.90;;;;;;5227734;28;20201;-68
2020/12/26 09:48:22;;;;;;;7.33;3.47;;;1.50;99.90;;;;;;5227900;28;20190;-71
2020/12/26 09:50:55;;;;;;;9.13;4.47;;;1.60;99.90;;;;;;5228150;28;20668;-71
2020/12/26 09:53:27;;;;;;;8.77;4.40;;;1.60;99.90;;;;;;5228062;28;20189;-72
2020/12/26 09:56:04;;;;;;;11.50;4.70;;;1.70;99.90;;;;;;5228234;28;20651;-68
2020/12/26 09:58:39;;;;;;;8.60;4.27;;;1.70;99.90;;;;;;5210327;28;20243;-67
2020/12/26 10:01:17;;;;;;;11.50;5.00;;;1.70;99.90;;;;;;5227436;28;20205;-73
2020/12/26 10:03:52;;;;;;;11.37;5.23;;;1.70;99.90;;;;;;5227927;28;20280;-68
2020/12/26 10:06:24;;;;;;;14.63;6.00;;;1.70;99.90;;;;;;5227440;28;20209;-70
2020/12/26 10:08:56;;;;;;;12.27;5.67;;;1.70;99.90;;;;;;5227536;28;20225;-72
2020/12/26 10:11:33;;;;;;;13.40;6.17;;;1.80;99.90;;;;;;5164088;28;20226;-70
2020/12/26 10:14:11;;;;;;;14.37;5.60;;;1.80;99.90;;;;;;5147846;28;20285;-68
2020/12/26 10:16:45;;;;;;;13.23;5.73;;;1.90;99.90;;;;;;5163565;28;20215;-69
2020/12/26 10:19:20;;;;;;;14.20;5.90;;;1.90;99.90;;;;;;5164106;28;20207;-70
2020/12/26 10:21:55;;;;;;;13.40;5.20;;;1.90;99.90;;;;;;5163708;28;20654;-72
2020/12/26 10:28:24;;;;;;;9.03;4.17;;;1.90;99.90;;;;;;5164032;28;20218;-68
2020/12/26 10:30:56;;;;;;;11.97;5.57;;;1.90;99.90;;;;;;5227579;28;20668;-73
2020/12/26 10:33:31;;;;;;;12.30;5.93;;;1.90;99.90;;;;;;5209702;28;20202;-68
2020/12/26 10:36:04;;;;;;;9.93;5.27;;;1.90;99.90;;;;;;5227231;28;20189;-70
2020/12/26 10:38:36;;;;;;;8.07;4.47;;;1.90;99.90;;;;;;5229669;28;20567;-70
2020/12/26 10:45:05;;;;;;;6.17;3.87;;;2.10;99.90;;;;;;5231535;28;20179;-69
2020/12/26 10:47:36;;;;;;;7.47;3.87;;;2.10;99.90;;;;;;5231256;28;20190;-69
2020/12/26 10:50:09;;;;;;;8.00;4.00;;;2.10;99.90;;;;;;5231265;28;20194;-70
2020/12/26 10:52:44;;;;;;;11.30;4.40;;;2.10;99.90;;;;;;5230867;28;20275;-71
2020/12/26 10:55:17;;;;;;;6.53;3.40;;;2.10;99.90;;;;;;5230955;28;20280;-68
2020/12/26 10:57:49;;;;;;;8.47;3.23;;;2.10;99.90;;;;;;5231487;28;20223;-69
2020/12/26 11:00:23;;;;;;;6.77;3.50;;;2.10;99.90;;;;;;5231155;28;20186;-70
2020/12/26 11:03:00;;;;;;;8.30;3.70;;;2.20;99.90;;;;;;5231489;28;20216;-69
2020/12/26 11:05:32;;;;;;;7.70;3.80;;;2.20;99.90;;;;;;5230642;28;20284;-72
2020/12/26 11:08:09;;;;;;;9.13;3.97;;;2.20;99.90;;;;;;5231199;28;20197;-69
2020/12/26 11:10:41;;;;;;;7.80;3.73;;;2.20;99.90;;;;;;5231187;28;20217;-71
2020/12/26 11:13:17;;;;;;;7.87;3.97;;;2.20;99.90;;;;;;5232809;28;20248;-72
2020/12/26 11:15:50;;;;;;;8.70;3.53;;;2.30;99.90;;;;;;5233522;28;20236;-75
2020/12/26 11:18:24;;;;;;;6.30;3.57;;;2.50;99.90;;;;;;5232405;28;20343;-72
2020/12/26 11:20:55;;;;;;;6.23;3.03;;;2.90;99.90;;;;;;5231097;28;20295;-70
2020/12/26 11:23:29;;;;;;;6.00;3.30;;;3.00;99.90;;;;;;5230752;28;20281;-69
2020/12/26 11:26:01;;;;;;;6.83;3.70;;;3.00;99.90;;;;;;5230381;28;20202;-72
2020/12/26 11:28:44;;;;;;;5.20;2.77;;;3.10;99.90;;;;;;5230664;28;20746;-70
2020/12/26 11:31:21;;;;;;;5.13;2.77;;;3.10;99.90;;;;;;5231114;28;20563;-70
2020/12/26 11:34:00;;;;;;;7.17;3.10;;;2.90;99.90;;;;;;5230398;28;20371;-71
2020/12/26 11:36:32;;;;;;;5.47;2.97;;;2.70;99.90;;;;;;5212845;28;20189;-70
2020/12/26 11:39:10;;;;;;;5.47;2.70;;;2.60;99.90;;;;;;5231509;28;20189;-71
2020/12/26 11:41:45;;;;;;;4.63;2.77;;;2.50;99.90;;;;;;5234005;28;20197;-70
2020/12/26 11:44:16;;;;;;;7.07;3.33;;;2.40;99.90;;;;;;5230379;28;20220;-69
2020/12/26 11:46:48;;;;;;;5.47;3.00;;;2.30;99.90;;;;;;5230871;28;20645;-73
2020/12/26 11:49:22;;;;;;;5.57;2.60;;;2.30;99.90;;;;;;5230425;28;20197;-68
2020/12/26 11:51:54;;;;;;;5.00;2.53;;;2.20;99.90;;;;;;5230118;28;20236;-71
2020/12/26 11:58:24;;;;;;;8.10;3.13;;;2.20;99.90;;;;;;5230506;28;20264;-71
2020/12/26 12:00:56;;;;;;;9.03;3.97;;;2.20;99.90;;;;;;5229949;28;20196;-70
2020/12/26 12:03:27;;;;;;;9.90;4.83;;;2.20;99.90;;;;;;5230304;28;20201;-71
2020/12/26 12:05:59;;;;;;;9.80;5.53;;;2.20;99.90;;;;;;5212302;28;20190;-70
2020/12/26 12:08:35;;;;;;;11.33;5.83;;;2.20;99.90;;;;;;5230306;28;20597;-71
2020/12/26 12:15:07;;;;;;;11.23;5.80;;;2.20;99.90;;;;;;5230099;28;20238;-70
2020/12/26 12:17:41;;;;;;;9.70;4.90;;;2.20;99.90;;;;;;5229801;28;20189;-71
2020/12/26 12:20:12;;;;;;;11.07;6.50;;;2.20;99.90;;;;;;5230081;28;20194;-71
2020/12/26 12:22:44;;;;;;;12.33;6.20;;;2.20;99.90;;;;;;5229653;28;20204;-70
2020/12/26 12:25:16;;;;;;;13.80;6.07;;;2.20;99.90;;;;;;5229813;28;20530;-72
2020/12/26 12:27:48;;;;;;;12.43;6.30;;;2.30;99.90;;;;;;5229457;28;20284;-73
2020/12/26 12:30:22;;;;;;;12.90;6.43;;;2.20;99.90;;;;;;5229471;28;20640;-71
2020/12/26 12:32:54;;;;;;;12.27;5.80;;;2.30;99.90;;;;;;5229298;28;20316;-70
2020/12/26 12:35:26;;;;;;;11.60;6.43;;;2.30;99.90;;;;;;5229267;28;20200;-72
2020/12/26 12:37:57;;;;;;;11.37;5.67;;;2.30;99.90;;;;;;5229377;28;20197;-70
2020/12/26 12:40:29;;;;;;;10.13;5.23;;;2.20;99.90;;;;;;5229253;28;20185;-70
2020/12/26 12:43:01;;;;;;;12.07;5.73;;;2.10;99.90;;;;;;5229325;28;20232;-72
2020/12/26 12:45:33;;;;;;;14.40;6.27;;;2.00;99.90;;;;;;5230498;28;20197;-72
2020/12/26 12:48:10;;;;;;;12.20;5.80;;;2.00;99.90;;;;;;5213594;28;20655;-70
2020/12/26 12:50:42;;;;;;;14.13;5.97;;;2.00;99.90;;;;;;5229173;28;20212;-71
2020/12/26 12:53:14;;;;;;;10.97;6.03;;;1.90;99.90;;;;;;5229153;28;20201;-72
2020/12/26 12:55:47;;;;;;;11.70;6.47;;;1.90;99.90;;;;;;5228922;28;20194;-71
2020/12/26 12:58:19;;;;;;;10.33;5.90;;;1.80;99.90;;;;;;5228922;28;20593;-69
2020/12/26 13:00:51;;;;;;;12.70;5.83;;;1.80;99.90;;;;;;5227940;28;20284;-71
2020/12/26 13:03:25;;;;;;;11.97;6.40;;;1.70;99.90;;;;;;5228347;28;20211;-72
2020/12/26 13:05:56;;;;;;;12.73;5.50;;;1.70;99.90;;;;;;5228673;28;20193;-71
2020/12/26 13:08:28;;;;;;;12.80;5.87;;;1.70;99.90;;;;;;5228562;28;20200;-72
2020/12/26 13:11:00;;;;;;;13.10;6.40;;;1.70;99.90;;;;;;5210853;28;20228;-71
2020/12/26 13:13:32;;;;;;;12.83;6.00;;;1.60;99.90;;;;;;5227858;28;20293;-71
2020/12/26 13:16:04;;;;;;;15.60;6.67;;;1.60;99.90;;;;;;5228410;28;20206;-71
2020/12/26 13:18:35;;;;;;;15.57;6.57;;;1.50;99.90;;;;;;5228459;28;20186;-70
2020/12/26 13:21:14;;;;;;;13.10;6.57;;;1.50;99.90;;;;;;5227941;28;20202;-69
2020/12/26 13:23:47;;;;;;;16.00;6.93;;;1.50;99.90;;;;;;5228639;28;20209;-69
2020/12/26 13:26:21;;;;;;;13.90;6.20;;;1.40;99.90;;;;;;5228269;28;20228;-70
2020/12/26 13:28:55;;;;;;;16.83;7.37;;;1.40;99.90;;;;;;5228236;28;20657;-70
2020/12/26 13:31:29;;;;;;;13.13;6.27;;;1.40;99.90;;;;;;5228031;28;20259;-69
2020/12/26 13:34:05;;;;;;;13.10;6.13;;;1.30;99.90;;;;;;5228287;28;20200;-72
2020/12/26 13:36:39;;;;;;;10.80;5.53;;;1.20;99.90;;;;;;5228276;28;20201;-72
2020/12/26 13:39:20;;;;;;;13.50;6.13;;;1.20;99.90;;;;;;5228000;28;20206;-70
2020/12/26 13:41:52;;;;;;;12.70;6.23;;;1.10;99.90;;;;;;5228054;28;20200;-71
2020/12/26 13:44:24;;;;;;;11.57;5.87;;;1.10;99.90;;;;;;5227974;28;20193;-70
2020/12/26 13:46:56;;;;;;;12.77;6.40;;;1.10;99.90;;;;;;5227971;28;20203;-71
2020/12/26 13:49:28;;;;;;;12.37;6.13;;;1.00;99.90;;;;;;5228123;28;20633;-71
2020/12/26 13:52:00;;;;;;;14.00;5.53;;;1.00;99.90;;;;;;5227770;28;20221;-70
2020/12/26 13:54:31;;;;;;;13.70;5.00;;;0.90;99.90;;;;;;5227853;28;20190;-71
2020/12/26 13:57:04;;;;;;;10.70;5.20;;;0.80;99.90;;;;;;5227599;28;20614;-71
2020/12/26 13:59:38;;;;;;;12.70;6.10;;;0.80;99.90;;;;;;5227797;28;20200;-70
2020/12/26 14:02:13;;;;;;;12.90;5.30;;;0.80;99.90;;;;;;5227548;28;20209;-71
2020/12/26 14:04:47;;;;;;;15.27;5.63;;;0.70;99.90;;;;;;5209918;28;20197;-72
2020/12/26 14:07:19;;;;;;;13.30;5.60;;;0.70;99.90;;;;;;5227616;28;20663;-69
2020/12/26 14:13:51;;;;;;;11.33;4.90;;;0.60;99.90;;;;;;5227561;28;20597;-69
2020/12/26 14:16:25;;;;;;;9.57;4.97;;;0.50;99.90;;;;;;5227115;28;20215;-73
2020/12/26 14:18:57;;;;;;;10.97;5.10;;;0.50;99.90;;;;;;5227733;28;20280;-71
2020/12/26 14:21:35;;;;;;;10.03;4.90;;;0.40;99.90;;;;;;5210358;28;20347;-69
2020/12/26 14:24:07;;;;;;;12.87;5.53;;;0.30;99.90;;;;;;5227313;28;20196;-69